Latest Weather Observations for Wulungurru (Kintore)

IDD60801

Issued at 11:01 am CST Tuesday 23 December 2014 (issued every 30 minutes, with the page automatically refreshed every 10 minutes)

About weather observations | Map of weather stations | Latest weather observations for NT | Other Formats
Station Details ID: 015664 Name: WALUNGURRU AIRPORT Lat: -23.27 Lon: 129.38 Height: 454.3 m
Data from the previous 72 hours. | See also: Recent months at Wulungurru (Kintore)
Date/Time
CST
Temp
°C
App
Temp
°C
Dew
Point
Rel
Hum
%
Delta-T
°C
Wind Press
QNH
hPa
Press
MSL
hPa
Rain
since 9 am
mm
Dir
 
Spd
km/h
Gust
km/h
Spd
kts
Gust
kts
23/11:00am 30.4 32.8 20.0 53 7.0 NNE 7 9 4 5 1013.3 - 0.0
23/10:30am 29.6 32.3 20.7 58 6.0 WSW 7 13 4 7 1013.3 - 0.0
23/10:00am 28.8 31.0 20.3 60 5.7 N 9 15 5 8 1013.3 - 0.0
23/09:30am 28.5 31.5 20.8 63 5.2 WSW 6 11 3 6 1013.5 - 0.0
23/09:00am 27.6 30.5 20.7 66 4.6 N 6 9 3 5 1013.6 1010.4 0.0
23/08:30am 27.1 29.9 20.9 69 4.2 NW 7 11 4 6 1013.4 - 0.0
23/08:00am 26.6 30.3 22.2 77 3.0 WNW 6 9 3 5 1013.1 - 0.0
23/07:30am 26.1 29.9 21.7 77 3.0 NNE 4 7 2 4 1012.7 - 0.0
23/07:00am 25.8 30.0 21.7 78 2.8 E 2 6 1 3 1012.5 - 0.0
23/06:30am 25.5 30.0 21.6 79 2.6 CALM 0 0 0 0 1012.5 - 0.0
23/06:00am 25.5 29.6 21.6 79 2.6 N 2 7 1 4 1011.9 1008.6 0.0
23/05:30am 25.5 28.6 21.4 78 2.8 NNE 7 11 4 6 1011.5 - 0.0
23/05:00am 25.7 27.9 21.1 76 3.1 NNE 11 15 6 8 1011.2 - 0.0
23/04:30am 25.7 28.2 21.1 76 3.1 N 9 15 5 8 1011.5 - 0.0
23/04:00am 25.9 28.6 21.3 76 3.1 ESE 9 11 5 6 1011.0 - 0.0
23/03:30am 27.2 28.6 19.5 62 5.1 E 11 17 6 9 1010.7 - 0.0
23/03:00am 27.4 27.9 19.2 61 5.4 E 15 20 8 11 1010.3 1007.0 0.0
23/02:30am 27.5 27.8 18.8 59 5.7 E 15 24 8 13 1010.0 - 0.0
23/02:00am 27.7 28.1 19.0 59 5.7 ESE 15 22 8 12 1009.9 - 0.0
23/01:30am 28.0 27.3 18.7 57 6.1 SE 20 33 11 18 1009.6 - 0.0
23/01:00am 27.9 28.6 18.9 58 5.9 SE 13 20 7 11 1009.6 - 0.0
23/12:30am 28.0 29.5 19.0 58 5.9 ESE 9 13 5 7 1009.8 - 0.0
23/12:00am 27.2 30.5 19.0 61 5.4 CALM 0 2 0 1 1010.0 1006.7 0.0
 
Date/Time
CST
Temp
°C
App
Temp
°C
Dew
Point
Rel
Hum
%
Delta-T
°C
Wind Press
QNH
hPa
Press
MSL
hPa
Rain
since 9 am
mm
Dir
 
Spd
km/h
Gust
km/h
Spd
kts
Gust
kts
22/11:30pm 27.2 27.1 18.8 60 5.5 SSE 17 22 9 12 1010.2 - 0.0
22/11:00pm 27.3 27.9 18.6 59 5.7 SSE 13 17 7 9 1010.5 - 0.0
22/10:30pm 26.4 28.3 19.8 67 4.4 S 9 13 5 7 1010.6 - 0.0
22/10:00pm 26.1 28.8 20.2 70 3.9 W 6 7 3 4 1011.0 - 0.0
22/09:30pm 26.0 28.5 20.3 71 3.8 NW 7 9 4 5 1011.0 - 0.0
22/09:00pm 26.7 28.0 20.1 67 4.4 NW 13 17 7 9 1010.8 1007.6 0.0
22/08:30pm 27.1 27.3 20.2 66 4.6 N 19 24 10 13 1010.3 - 0.0
22/08:03pm 28.2 25.6 19.4 59 5.8 N 32 50 17 27 1009.9 - 0.0
22/08:00pm 28.4 25.4 19.1 57 6.1 N 33 50 18 27 1009.8 - 0.0
22/07:58pm 28.6 26.2 19.0 56 6.3 N 30 50 16 27 1009.6 - 0.0
22/07:54pm 29.3 26.8 18.1 51 7.3 N 28 37 15 20 1009.8 - 0.0
22/07:30pm 31.2 30.9 14.4 36 10.4 SSW 9 15 5 8 1008.7 - 0.0
22/07:00pm 30.9 29.1 16.1 41 9.4 SW 20 30 11 16 1008.4 - 0.0
22/06:30pm 30.7 28.0 16.7 43 9.0 SW 26 41 14 22 1007.9 - 0.0
22/06:00pm 30.9 28.4 17.2 43 8.9 SW 26 35 14 19 1007.7 1004.4 0.0
22/05:30pm 31.1 27.4 17.4 44 8.9 SW 33 46 18 25 1007.6 - 0.0
22/05:00pm 33.4 30.0 15.8 34 11.2 SW 28 46 15 25 1007.5 - 0.0
22/04:30pm 35.7 33.9 14.4 28 13.4 W 17 24 9 13 1007.4 - 0.0
22/04:00pm 36.0 34.3 15.7 30 13.0 W 19 28 10 15 1007.5 - 0.0
22/03:30pm 37.1 35.1 15.5 27 13.9 WNW 20 30 11 16 1007.5 - 0.0
22/03:00pm 37.2 34.7 15.1 27 14.1 W 22 32 12 17 1008.0 1004.7 0.0
22/02:30pm 37.6 37.1 16.0 28 14.0 W 13 24 7 13 1008.5 - 0.0
22/02:00pm 35.4 34.4 15.7 31 12.6 SW 15 22 8 12 1009.0 - 0.0
22/01:30pm 35.4 35.6 15.7 31 12.6 W 9 17 5 9 1009.2 - 0.0
22/01:00pm 35.6 34.1 16.4 32 12.4 WSW 19 22 10 12 1009.7 - 0.0
22/12:30pm 35.7 34.3 16.9 32 12.3 W 20 28 11 15 1009.9 - 0.0
22/12:00pm 36.0 36.0 17.2 33 12.3 SSW 13 20 7 11 1009.8 1006.5 0.0
22/11:30am 35.3 34.7 17.5 34 11.7 WSW 17 24 9 13 1010.1 - 0.0
22/11:00am 33.1 33.4 16.9 38 10.5 W 11 15 6 8 1010.3 - 0.0
22/10:30am 32.9 33.0 17.5 39 10.0 W 13 17 7 9 1010.4 - 0.0
22/10:00am 32.3 33.4 16.6 39 10.1 S 6 9 3 5 1010.7 - 0.0
22/09:30am 32.4 33.1 17.1 40 9.9 SSE 9 15 5 8 1010.8 - 0.0
22/09:00am 31.4 32.5 18.0 44 8.8 S 9 13 5 7 1010.8 1007.6 0.0
22/08:30am 30.5 31.2 17.9 47 8.2 SSE 11 17 6 9 1010.7 - 0.0
22/08:00am 30.9 32.2 19.3 50 7.7 SE 11 15 6 8 1010.3 - 0.0
22/07:30am 28.9 29.8 19.2 55 6.4 SSE 13 17 7 9 1010.2 - 0.0
22/07:00am 28.8 29.4 19.4 56 6.2 SSW 15 19 8 10 1009.7 - 0.0
22/06:30am 27.3 29.0 20.1 64 4.8 SW 11 15 6 8 1009.6 - 0.0
22/06:00am 27.0 29.2 20.3 66 4.5 SW 9 11 5 6 1009.3 1006.1 0.0
22/05:30am 27.4 29.4 20.7 67 4.5 W 11 13 6 7 1009.1 - 0.0
22/05:00am 26.7 29.2 21.0 71 3.8 SW 9 11 5 6 1008.3 - 0.0
22/04:30am 26.8 30.2 20.9 70 4.0 WSW 4 6 2 3 1008.1 - 0.0
22/04:00am 27.2 30.1 21.0 69 4.2 WSW 7 9 4 5 1008.1 - 0.0
22/03:30am 27.4 30.6 21.2 69 4.2 W 6 7 3 4 1008.1 - 0.0
22/03:00am 27.6 30.6 21.2 68 4.3 WNW 7 7 4 4 1008.2 1004.9 0.0
22/02:30am 27.4 30.0 20.5 66 4.6 W 7 9 4 5 1008.3 - 0.0
22/02:00am 27.4 29.6 20.5 66 4.6 W 9 9 5 5 1008.5 - 0.0
22/01:30am 27.5 29.8 20.6 66 4.6 SW 9 9 5 5 1008.9 - 0.0
22/01:00am 28.3 30.7 20.1 61 5.5 W 7 9 4 5 1009.1 - 0.0
22/12:30am 28.6 31.1 19.8 59 5.8 WSW 6 7 3 4 1009.2 - 0.0
22/12:00am 29.3 31.9 19.3 55 6.6 N 4 7 2 4 1009.5 1006.2 0.0
 
Date/Time
CST
Temp
°C
App
Temp
°C
Dew
Point
Rel
Hum
%
Delta-T
°C
Wind Press
QNH
hPa
Press
MSL
hPa
Rain
since 9 am
mm
Dir
 
Spd
km/h
Gust
km/h
Spd
kts
Gust
kts
21/11:30pm 29.6 32.0 19.6 55 6.6 NE 6 13 3 7 1009.7 - 0.0
21/11:00pm 29.5 30.8 19.2 54 6.8 WSW 11 15 6 8 1009.2 - 0.0
21/10:30pm 29.7 31.7 19.1 53 7.0 WSW 7 11 4 6 1009.2 - 0.0
21/10:00pm 30.4 31.9 18.8 50 7.6 NNW 9 13 5 7 1008.8 - 0.0
21/09:30pm 30.9 31.6 18.9 48 7.9 NNW 13 19 7 10 1008.4 - 0.0
21/09:00pm 31.0 32.0 19.4 50 7.7 NW 13 17 7 9 1008.1 1004.8 0.0
21/08:30pm 31.3 32.7 19.6 49 7.8 NW 11 15 6 8 1007.9 - 0.0
21/08:00pm 31.7 32.6 19.3 47 8.3 NNW 13 19 7 10 1007.8 - 0.0
21/07:30pm 32.2 31.7 19.1 45 8.7 NNW 20 28 11 15 1007.5 - 0.0
21/07:00pm 32.7 29.7 17.7 40 9.8 N 30 41 16 22 1007.2 - 0.0
21/06:30pm 33.3 30.3 18.6 41 9.7 N 32 46 17 25 1007.0 - 0.0
21/06:00pm 33.3 29.8 17.9 40 10.1 N 33 48 18 26 1007.2 1003.9 0.0
21/05:53pm 34.0 30.8 16.4 35 11.3 N 28 43 15 23 1007.2 - 0.0
21/05:30pm 37.3 36.5 14.0 25 14.7 W 11 17 6 9 1006.9 - 0.0
21/05:00pm 38.4 37.7 14.2 23 15.3 SW 11 22 6 12 1007.2 - 0.0
21/04:30pm 37.6 35.9 13.6 24 15.0 W 15 22 8 12 1007.5 - 0.0
21/04:00pm 38.3 37.3 13.5 23 15.6 W 11 20 6 11 1007.8 - 0.0
21/03:30pm 38.3 36.8 14.2 24 15.3 N 15 24 8 13 1008.2 - 0.0
21/03:00pm 37.9 35.3 13.2 23 15.4 NNW 19 26 10 14 1008.7 1005.5 0.0
21/02:30pm 37.0 35.1 11.8 22 15.4 NNW 13 22 7 12 1009.1 - 0.0
21/02:00pm 37.3 36.1 14.0 25 14.7 W 13 24 7 13 1009.6 - 0.0
21/01:30pm 36.9 36.4 15.9 28 13.5 SSW 13 28 7 15 1010.0 - 0.0
21/01:00pm 36.4 37.7 17.0 31 12.7 N 6 15 3 8 1010.5 - 0.0
21/12:30pm 36.0 36.7 16.2 31 12.8 NW 7 15 4 8 1011.0 - 0.0
21/12:00pm 35.1 35.7 15.9 31 12.3 E 7 13 4 7 1011.5 1008.3 0.0
21/11:30am 34.1 34.6 16.5 35 11.4 SSW 9 17 5 9 1011.9 - 0.0
21/11:00am 34.2 34.8 17.8 37 10.8 SE 11 19 6 10 1012.2 - 0.0
21/10:30am 33.2 33.4 18.5 41 9.7 SSE 15 20 8 11 1012.4 - 0.0
21/10:00am 31.8 31.4 19.4 47 8.3 S 20 28 11 15 1012.7 - 0.0
21/09:30am 30.4 30.2 19.7 52 7.1 S 20 28 11 15 1012.8 - 0.0
21/09:00am 29.7 30.0 20.3 57 6.3 S 19 26 10 14 1012.9 1009.7 1.4
21/08:30am 29.6 29.4 20.5 58 6.1 SSW 22 30 12 16 1012.9 - 1.4
21/08:00am 28.4 28.2 19.3 57 6.0 SW 19 26 10 14 1012.8 - 1.4
21/07:30am 27.7 28.0 19.5 61 5.4 WSW 17 24 9 13 1012.7 - 1.4
21/07:00am 25.9 27.5 20.7 73 3.5 SW 13 17 7 9 1012.3 - 1.4
21/06:30am 24.7 26.9 21.2 81 2.3 WSW 11 13 6 7 1011.9 - 1.4
21/06:00am 24.2 26.9 21.3 84 1.9 WSW 9 11 5 6 1011.4 1008.2 1.4
21/05:30am 24.3 27.5 21.2 83 2.1 SSW 6 9 3 5 1011.0 - 1.4
21/05:00am 24.6 26.8 21.1 81 2.3 SW 11 13 6 7 1010.7 - 1.4
21/04:30am 24.6 27.3 21.3 82 2.2 SW 9 9 5 5 1010.7 - 1.4
21/04:00am 24.7 27.7 21.2 81 2.3 WSW 7 9 4 5 1010.5 - 1.4
21/03:30am 25.2 28.2 21.3 79 2.6 W 7 9 4 5 1010.5 - 1.4
21/03:00am 26.0 28.4 20.8 73 3.5 NNW 9 9 5 5 1010.1 1006.8 1.4
21/02:30am 26.5 28.2 18.6 62 5.1 S 7 9 4 5 1009.6 - 1.4
21/02:00am 27.6 28.9 17.5 54 6.5 ENE 7 9 4 5 1009.5 - 1.4
21/01:30am 27.6 29.0 17.7 54 6.4 E 7 11 4 6 1009.7 - 1.4
21/01:00am 27.2 28.4 18.2 58 5.8 SE 9 17 5 9 1009.8 - 1.4
21/12:30am 27.1 28.1 19.4 62 5.1 SSE 13 17 7 9 1010.4 - 1.4
21/12:00am 27.4 29.0 19.2 61 5.4 SSE 9 13 5 7 1010.5 1007.3 1.4
 
Date/Time
CST
Temp
°C
App
Temp
°C
Dew
Point
Rel
Hum
%
Delta-T
°C
Wind Press
QNH
hPa
Press
MSL
hPa
Rain
since 9 am
mm
Dir
 
Spd
km/h
Gust
km/h
Spd
kts
Gust
kts
20/11:30pm 27.1 29.2 20.2 66 4.6 E 9 13 5 7 1010.3 - 1.4
20/11:00pm 27.6 28.8 19.1 59 5.6 S 11 13 6 7 1010.5 - 1.4
20/10:30pm 27.0 28.6 19.9 65 4.7 SW 11 15 6 8 1010.7 - 1.4
20/10:00pm 26.8 28.3 19.7 65 4.7 WSW 11 13 6 7 1010.3 - 1.4
20/09:30pm 26.9 29.8 20.7 69 4.2 SW 6 11 3 6 1010.0 - 1.4
20/09:00pm 26.9 29.4 20.3 67 4.4 SW 7 9 4 5 1009.8 1006.5 1.4
20/08:30pm 27.1 29.1 19.9 64 4.8 SW 9 9 5 5 1009.9 - 1.4
20/08:00pm 27.3 29.7 20.1 64 4.8 SW 7 9 4 5 1009.9 - 1.4
20/07:30pm 27.7 29.5 19.5 61 5.4 SW 9 11 5 6 1010.0 - 1.4
20/07:00pm 28.3 29.1 19.0 57 6.1 W 13 17 7 9 1010.3 - 1.4
20/06:30pm 28.9 28.9 18.9 54 6.6 WSW 17 24 9 13 1010.3 - 1.4
20/06:00pm 29.2 28.7 18.6 52 6.9 WSW 19 24 10 13 1010.2 1006.9 1.4
20/05:30pm 30.0 29.9 17.8 48 7.9 SW 15 19 8 10 1010.5 - 1.4
20/05:00pm 29.2 29.2 18.9 53 6.8 SW 17 22 9 12 1010.5 - 1.4
20/04:30pm 29.0 28.7 19.6 57 6.2 WSW 20 26 11 14 1010.7 - 1.2
20/04:00pm 28.9 28.7 20.6 61 5.6 WSW 22 30 12 16 1010.9 - 1.2
20/03:30pm 27.4 29.0 22.1 73 3.6 SW 17 24 9 13 1011.5 - 1.2
20/03:00pm 25.7 28.1 23.0 85 1.9 SW 15 20 8 11 1012.2 1008.9 1.2
20/02:30pm 24.0 24.3 20.3 80 2.4 W 19 26 10 14 1013.0 - 0.6
20/02:14pm 24.3 23.7 19.8 76 3.0 W 22 35 12 19 1013.3 - 0.0
20/02:00pm 26.5 23.9 21.5 74 3.4 WNW 37 48 20 26 1013.4 - 0.0
20/01:39pm 31.2 28.7 18.9 48 8.1 WNW 30 52 16 28 1013.4 - 0.0
20/01:30pm 32.8 31.7 18.6 43 9.4 WSW 22 32 12 17 1013.0 - 0.0
20/01:00pm 33.4 31.7 18.0 40 10.1 WSW 24 33 13 18 1012.6 - 0.0
20/12:30pm 35.2 35.1 17.9 36 11.4 SW 15 24 8 13 1013.0 - 0.0
20/12:00pm 33.7 33.2 17.0 37 10.8 SSW 15 24 8 13 1013.6 1010.4 0.0
20/11:30am 33.9 32.8 17.2 37 10.9 W 19 24 10 13 1014.2 - 0.0

Other Formats:

Comma delimited format used in spreadsheet applications
http://www.bom.gov.au/fwo/IDD60801/IDD60801.94321.axf

JavaScript Object Notation format (JSON) in row-major order
http://www.bom.gov.au/fwo/IDD60801/IDD60801.94321.json